This is the latest recevied weather packets stored in our database for station/object JK1DXQ-13. If no packets are shown the sender has not sent any weather packets the latest 10 day(s).
| Time | Temp. | Humidity | Pressure | Rain* | Wind** | Luminosity | Snow |
|---|---|---|---|---|---|---|---|
| 1777289176 | 14.44° C | 93% | 1010 hPa | 0 mm | - | - | - |
| 1777287975 | 15° C | 92% | 1009.7 hPa | 0 mm | - | - | - |
| 1777286776 | 15° C | 91% | 1009.6 hPa | 0 mm | - | - | - |
| 1777285576 | 15° C | 91% | 1009.5 hPa | 0 mm | - | - | - |
| 1777284375 | 15° C | 92% | 1009.2 hPa | 0.51 mm | - | - | - |
| 1777283176 | 15° C | 93% | 1008.9 hPa | 1.27 mm | - | - | - |
| 1777281975 | 15° C | 94% | 1008.1 hPa | 1.27 mm | - | - | - |
| 1777280776 | 15.56° C | 95% | 1008.3 hPa | 1.02 mm | - | - | - |
| 1777279579 | 15.56° C | 96% | 1007.8 hPa | 0.51 mm | - | - | - |
| 1777278378 | 16.11° C | 95% | 1007.4 hPa | 0.76 mm | - | - | - |
| 1777277178 | 15.56° C | 95% | 1007 hPa | 1.27 mm | - | - | - |
| 1777275977 | 15.56° C | 93% | 1006.8 hPa | 2.29 mm | - | - | - |
| 1777274778 | 16.11° C | 91% | 1006.7 hPa | 2.29 mm | - | - | - |
| 1777273579 | 16.67° C | 88% | 1006.3 hPa | 1.52 mm | - | - | - |
| 1777272378 | 18.89° C | 74% | 1005.9 hPa | 0 mm | - | - | - |
| 1777271179 | 20° C | 74% | 1005.1 hPa | 0 mm | - | - | - |
| 1777269977 | 21.11° C | 66% | 1004.6 hPa | 0 mm | - | - | - |
| 1777268778 | 22.22° C | 65% | 1004.5 hPa | 0 mm | - | - | - |
| 1777267579 | 22.78° C | 64% | 1004.5 hPa | 0 mm | - | - | - |
| 1777266377 | 25° C | 61% | 1004.1 hPa | 0 mm | - | - | - |
| 1777265179 | 24.44° C | 63% | 1004.1 hPa | 0 mm | - | - | - |
| 1777263977 | 23.33° C | 66% | 1004 hPa | 0 mm | - | - | - |
| 1777262778 | 22.22° C | 70% | 1004.1 hPa | 0 mm | - | - | - |
| 1777261578 | 21.11° C | 73% | 1004.3 hPa | 0 mm | - | - | - |
| 1777260377 | 20° C | 79% | 1004.4 hPa | 0 mm | - | - | - |
* Rain latest hour (hover to see other rain measurements)
** Current wind speed in m/s (hover to see current wind gust speed)